Madison, WI (53705)

9:52 AM CDT on August 27, 2016 (GMT -0500)
Hill Farms Neighborhood | | Change Station

Elev 930 ft 43.06 °N, 89.46 °W | Updated 5 seconds ago

Overcast
Overcast
63.8 °F
Feels Like 63.8 °F
N
0.0
Wind Variable Wind from East
Gusts 2.0 mph

Today
High -- | Low -- °F
--% Chance of Precip.
Yesterday
High -- | Low -- °F
Precip. -- in
Pressure 30.08 in
Visibility 3.0 miles
Clouds Overcast 400 ft
Dew Point 63 °F
Humidity 99%
Rainfall Not available.
Snow Depth Not available.
6:17 AM 7:40 PM
Waning Crescent, 24% visible
METAR KC29 271435Z AUTO 07004KT 3SM OVC004 17/17 A3008 RMK AO1 T01740174
Pressure 30.08 in
Visibility 3.0 miles
Clouds Overcast 400 ft
Dew Point 63 °F
Humidity 99%
Rainfall Not available.
Snow Depth Not available.
6:17 AM 7:40 PM
Waning Crescent, 24% visible
METAR KC29 271435Z AUTO 07004KT 3SM OVC004 17/17 A3008 RMK AO1 T01740174

10-Day Weather Forecast

Almanac

Astronomy

Aug. 27, 2016 Rise Set
Actual Time
Civil Twilight
Nautical Twilight
Astronomical Twilight
Moon
Length of Visible Light
Length of Day
Tomorrow will be .
, % of the Moon is Illuminated

Today's Extremes

State Highs State Lows

Community

WunderPhotos

Upload Photos

1,935,344 photos uploaded!

WunderBlog® & News

Nearby

Air Quality

  Air Quality AQ Index Pollutant
Not available.

Snow Depth

Station Depth Elevation

Earthquake Activity

City Distance Mag. Time & Date
Minimum magnitude displayed is 2.5.

Coastal Water Temperatures

Place Temperature

Stations

Nearby Weather Stations

Station Location Temp. Windchill Dew Point Humidity Wind Precip. Elev Updated Type
                   

Watches & Warnings

There are currently no watches in effect.